createdAt,value
2019-02-04T08:33:38.630Z,983.91
2019-02-04T08:34:48.720Z,983.96
2019-02-04T08:35:58.420Z,983.95
2019-02-04T08:37:08.401Z,984
2019-02-04T08:38:18.377Z,983.99
2019-02-04T08:39:28.434Z,983.95
2019-02-04T08:40:38.380Z,983.94
2019-02-04T08:41:48.344Z,983.9
2019-02-04T08:42:58.395Z,983.95
2019-02-04T08:44:08.460Z,983.93
2019-02-04T08:45:18.515Z,983.94
2019-02-04T08:46:28.496Z,983.87
2019-02-04T08:47:38.453Z,983.87
2019-02-04T08:48:48.410Z,983.9
2019-02-04T08:49:59.121Z,983.9
2019-02-04T08:51:11.519Z,983.82
2019-02-04T08:52:21.482Z,983.8
2019-02-04T08:53:31.442Z,983.83
2019-02-04T08:54:41.418Z,983.8
2019-02-04T08:55:51.459Z,983.81
2019-02-04T08:57:01.522Z,983.8
2019-02-04T08:58:11.493Z,983.77
2019-02-04T08:59:21.605Z,983.73
2019-02-04T09:00:31.606Z,983.74
2019-02-04T09:01:41.563Z,983.7
2019-02-04T09:02:51.624Z,983.74
2019-02-04T09:04:01.353Z,983.8
2019-02-04T09:05:11.446Z,983.8
2019-02-04T09:06:21.437Z,983.85
2019-02-04T09:07:31.416Z,983.86
2019-02-04T09:08:41.434Z,983.79
2019-02-04T09:09:51.404Z,983.77
2019-02-04T09:11:01.397Z,983.77
2019-02-04T09:12:11.361Z,983.77
2019-02-04T09:13:21.332Z,983.79
2019-02-04T09:14:31.348Z,983.86
2019-02-04T09:15:41.315Z,983.84
2019-02-04T09:16:51.310Z,983.85
2019-02-04T09:18:01.284Z,983.89
2019-02-04T09:19:11.292Z,983.87
2019-02-04T09:20:21.272Z,983.92
2019-02-04T09:21:31.237Z,983.93
2019-02-04T09:22:41.198Z,983.93
2019-02-04T09:23:51.217Z,983.94
2019-02-04T09:25:01.259Z,983.94
2019-02-04T09:26:11.382Z,983.94
2019-02-04T09:27:21.343Z,983.96
2019-02-04T09:28:31.311Z,983.93
2019-02-04T09:29:41.298Z,983.91
2019-02-04T09:30:51.272Z,983.93
2019-02-04T09:32:01.334Z,983.95
2019-02-04T09:33:11.297Z,983.93
2019-02-04T09:34:21.283Z,983.88
2019-02-04T09:35:33.126Z,983.85
2019-02-04T09:36:43.713Z,983.89
2019-02-04T09:37:54.402Z,983.82
2019-02-04T09:39:05.113Z,983.78
2019-02-04T09:40:15.969Z,983.78
2019-02-04T09:41:26.782Z,983.85
2019-02-04T09:42:37.293Z,983.87
2019-02-04T09:43:47.886Z,983.86
2019-02-04T09:44:58.088Z,983.84
2019-02-04T09:46:08.332Z,983.82
2019-02-04T09:47:18.323Z,983.78
2019-02-04T09:48:28.303Z,983.76
2019-02-04T09:49:38.379Z,983.77
2019-02-04T09:50:48.344Z,983.76
2019-02-04T09:51:58.325Z,983.75
2019-02-04T09:53:08.296Z,983.82
2019-02-04T09:54:18.282Z,983.86
2019-02-04T09:55:28.358Z,983.83
2019-02-04T09:56:38.078Z,983.85
2019-02-04T09:57:48.052Z,983.81
2019-02-04T09:58:58.025Z,983.85
2019-02-04T10:00:07.966Z,983.9
2019-02-04T10:01:18.069Z,983.89
2019-02-04T10:02:28.030Z,983.89
2019-02-04T10:03:37.961Z,983.9
2019-02-04T10:04:47.897Z,983.85
2019-02-04T10:05:57.843Z,983.86
2019-02-04T10:07:07.839Z,983.8
2019-02-04T10:08:17.772Z,983.76
2019-02-04T10:09:27.712Z,983.8
2019-02-04T10:10:37.661Z,983.79
2019-02-04T10:11:47.603Z,983.81
2019-02-04T10:12:57.804Z,983.76
2019-02-04T10:14:07.755Z,983.71
2019-02-04T10:15:17.697Z,983.75
2019-02-04T10:16:27.822Z,983.73
2019-02-04T10:17:37.986Z,983.7
2019-02-04T10:18:48.052Z,983.67
2019-02-04T10:19:58.170Z,983.73
2019-02-04T10:21:08.106Z,983.72
2019-02-04T10:22:18.255Z,983.75
2019-02-04T10:23:28.337Z,983.67
2019-02-04T10:24:38.470Z,983.68
2019-02-04T10:25:48.626Z,983.65
2019-02-04T10:26:58.698Z,983.71
2019-02-04T10:28:08.580Z,983.73
2019-02-04T10:29:18.432Z,983.7
2019-02-04T10:30:28.750Z,983.71
2019-02-04T10:31:38.826Z,983.71
2019-02-04T10:32:48.604Z,983.74
2019-02-04T10:33:58.656Z,983.72
2019-02-04T10:35:16.526Z,983.72
2019-02-04T10:36:27.642Z,983.75
2019-02-04T10:37:38.151Z,983.69
2019-02-04T10:38:48.914Z,983.72
2019-02-04T10:39:59.253Z,983.65
2019-02-04T10:41:09.551Z,983.65
2019-02-04T10:42:19.752Z,983.65
2019-02-04T10:43:29.797Z,983.7
2019-02-04T10:44:39.871Z,983.62
2019-02-04T10:45:49.838Z,983.59
2019-02-04T10:46:59.956Z,983.56
2019-02-04T10:48:10.084Z,983.49
2019-02-04T10:49:20.312Z,983.47
2019-02-04T10:50:30.490Z,983.49
2019-02-04T10:51:51.923Z,983.48
2019-02-04T10:53:02.090Z,983.48
2019-02-04T10:54:12.118Z,983.47
2019-02-04T10:55:22.310Z,983.45
2019-02-04T10:56:32.410Z,983.42
2019-02-04T10:57:42.509Z,983.47
2019-02-04T10:58:52.516Z,983.46
2019-02-04T11:00:02.604Z,983.42
2019-02-04T11:01:12.694Z,983.42
2019-02-04T11:02:22.803Z,983.44
2019-02-04T11:03:32.944Z,983.43
2019-02-04T11:04:42.996Z,983.39
2019-02-04T11:05:53.071Z,983.34
2019-02-04T11:07:03.003Z,983.28
2019-02-04T11:08:13.170Z,983.19
2019-02-04T11:09:23.303Z,983.22
2019-02-04T11:10:33.491Z,983.23
2019-02-04T11:11:43.702Z,983.23
2019-02-04T11:12:53.798Z,983.21
2019-02-04T11:14:03.964Z,983.13
2019-02-04T11:15:14.141Z,983.08
2019-02-04T11:16:26.218Z,983.08
2019-02-04T11:17:36.452Z,983.04
2019-02-04T11:18:46.899Z,983.05
2019-02-04T11:19:57.560Z,983.04
2019-02-04T11:21:08.619Z,983.04
2019-02-04T11:22:19.432Z,983.05
2019-02-04T11:23:30.194Z,983.09
2019-02-04T11:24:40.941Z,983.08
2019-02-04T11:25:51.627Z,983.07
2019-02-04T11:27:01.836Z,983.05
2019-02-04T11:28:12.041Z,983.03
2019-02-04T11:29:22.274Z,983.03
2019-02-04T11:30:32.456Z,982.99
2019-02-04T11:31:42.616Z,982.99
2019-02-04T11:32:52.843Z,982.94
2019-02-04T11:34:03.051Z,982.9
2019-02-04T11:35:13.274Z,982.91
2019-02-04T11:36:23.391Z,982.89
2019-02-04T11:37:33.505Z,982.86
2019-02-04T11:38:43.598Z,982.9
2019-02-04T11:39:53.712Z,982.95
2019-02-04T11:41:03.803Z,982.93
2019-02-04T11:42:13.850Z,982.92
2019-02-04T11:43:23.945Z,982.9
2019-02-04T11:44:34.085Z,982.85
2019-02-04T11:45:44.473Z,982.86
2019-02-04T11:46:56.014Z,982.86
2019-02-04T11:48:06.160Z,982.9
2019-02-04T11:49:16.269Z,982.92
2019-02-04T11:50:25.964Z,982.87
2019-02-04T11:51:35.937Z,982.86
2019-02-04T11:52:45.890Z,982.86
2019-02-04T11:53:55.834Z,982.85
2019-02-04T11:55:05.773Z,982.86
2019-02-04T11:56:15.715Z,982.84
2019-02-04T11:57:25.656Z,982.81
2019-02-04T11:58:35.611Z,982.8
2019-02-04T11:59:45.647Z,982.79
2019-02-04T12:00:55.586Z,982.75
2019-02-04T12:02:05.645Z,982.7
2019-02-04T12:03:15.681Z,982.73
2019-02-04T12:04:25.616Z,982.72
2019-02-04T12:05:35.725Z,982.71
2019-02-04T12:06:45.490Z,982.72
2019-02-04T12:07:55.440Z,982.71
2019-02-04T12:09:05.525Z,982.72
2019-02-04T12:10:15.468Z,982.66
2019-02-04T12:11:25.440Z,982.69
2019-02-04T12:12:35.381Z,982.68
2019-02-04T12:13:45.333Z,982.64
2019-02-04T12:14:55.327Z,982.63
2019-02-04T12:16:05.612Z,982.59
2019-02-04T12:17:15.903Z,982.57
2019-02-04T12:18:26.474Z,982.56
2019-02-04T12:19:36.973Z,982.53
2019-02-04T12:20:47.475Z,982.51
2019-02-04T12:21:58.144Z,982.54
2019-02-04T12:23:10.751Z,982.49
2019-02-04T12:24:21.013Z,982.44
2019-02-04T12:25:31.012Z,982.5
2019-02-04T12:26:41.071Z,982.53
2019-02-04T12:27:50.992Z,982.48
2019-02-04T12:29:00.944Z,982.49
2019-02-04T12:30:10.894Z,982.45
2019-02-04T12:31:20.847Z,982.43
2019-02-04T12:32:30.831Z,982.42
2019-02-04T12:33:40.773Z,982.45
2019-02-04T12:34:50.826Z,982.45
2019-02-04T12:36:02.089Z,982.43
2019-02-04T12:37:12.208Z,982.44
2019-02-04T12:38:22.490Z,982.42
2019-02-04T12:39:32.429Z,982.39
2019-02-04T12:40:42.373Z,982.42
2019-02-04T12:41:52.436Z,982.4
2019-02-04T12:43:02.378Z,982.37
2019-02-04T12:44:12.399Z,982.33
2019-02-04T12:45:22.342Z,982.36
2019-02-04T12:46:32.295Z,982.36
2019-02-04T12:47:42.247Z,982.32
2019-02-04T12:48:52.182Z,982.3
2019-02-04T12:50:02.218Z,982.31
2019-02-04T12:51:12.162Z,982.34
2019-02-04T12:52:33.776Z,982.34
2019-02-04T12:53:43.461Z,982.29
2019-02-04T12:54:53.403Z,982.26
2019-02-04T12:56:03.347Z,982.3
2019-02-04T12:57:13.292Z,982.26
2019-02-04T12:58:23.237Z,982.24
2019-02-04T12:59:33.168Z,982.26
2019-02-04T13:00:45.831Z,982.22
2019-02-04T13:01:55.773Z,982.25
2019-02-04T13:03:05.717Z,982.21
2019-02-04T13:04:15.889Z,982.16
2019-02-04T13:05:26.230Z,982.18
2019-02-04T13:06:36.564Z,982.16
2019-02-04T13:07:49.847Z,982.19
2019-02-04T13:09:00.631Z,982.17
2019-02-04T13:10:11.227Z,982.18
2019-02-04T13:11:21.774Z,982.12
2019-02-04T13:12:32.113Z,982.14
2019-02-04T13:13:42.310Z,982.09
2019-02-04T13:14:52.258Z,982.09
2019-02-04T13:16:01.979Z,982.05
2019-02-04T13:17:11.931Z,982.06
2019-02-04T13:18:21.969Z,982.09
2019-02-04T13:19:31.906Z,982.09
2019-02-04T13:20:42.923Z,982.08
2019-02-04T13:21:52.864Z,982.07
2019-02-04T13:23:02.817Z,982.06
2019-02-04T13:24:12.889Z,982.06
2019-02-04T13:25:22.834Z,982.03
2019-02-04T13:26:32.547Z,982.01
2019-02-04T13:27:42.493Z,982.02
2019-02-04T13:28:52.450Z,982
2019-02-04T13:30:02.457Z,981.98
2019-02-04T13:31:12.450Z,982.05
2019-02-04T13:32:22.367Z,982.02
2019-02-04T13:33:32.405Z,982.02
2019-02-04T13:34:42.348Z,982.02
2019-02-04T13:35:52.333Z,982
2019-02-04T13:37:02.283Z,982.01
2019-02-04T13:38:12.229Z,981.99
2019-02-04T13:39:22.184Z,981.97
2019-02-04T13:40:32.132Z,981.93
2019-02-04T13:41:45.030Z,981.88
2019-02-04T13:42:54.978Z,981.87
2019-02-04T13:44:04.948Z,981.9
2019-02-04T13:45:15.011Z,981.87
2019-02-04T13:46:24.978Z,981.88
2019-02-04T13:47:35.082Z,981.86
2019-02-04T13:48:45.017Z,981.84
2019-02-04T13:49:54.961Z,981.83
2019-02-04T13:51:04.907Z,981.78
2019-02-04T13:52:15.372Z,981.79
2019-02-04T13:53:26.979Z,981.78
2019-02-04T13:54:37.094Z,981.78
2019-02-04T13:55:46.839Z,981.78
2019-02-04T13:56:56.780Z,981.72
2019-02-04T13:58:09.231Z,981.69
2019-02-04T13:59:22.398Z,981.66
2019-02-04T14:00:32.931Z,981.62
2019-02-04T14:01:43.712Z,981.64
2019-02-04T14:02:59.066Z,981.57
2019-02-04T14:04:09.342Z,981.56
2019-02-04T14:05:19.463Z,981.51
2019-02-04T14:06:31.886Z,981.51
2019-02-04T14:07:41.843Z,981.53
2019-02-04T14:08:51.794Z,981.54
2019-02-04T14:10:01.747Z,981.5
2019-02-04T14:11:11.853Z,981.5
2019-02-04T14:12:21.921Z,981.48
2019-02-04T14:13:31.854Z,981.44
2019-02-04T14:14:41.788Z,981.43
2019-02-04T14:15:51.723Z,981.39
2019-02-04T14:17:01.822Z,981.41
2019-02-04T14:18:11.765Z,981.41
2019-02-04T14:19:26.787Z,981.37
2019-02-04T14:20:36.730Z,981.43
2019-02-04T14:21:46.675Z,981.45
2019-02-04T14:22:56.668Z,981.48
2019-02-04T14:24:06.367Z,981.43
2019-02-04T14:25:16.309Z,981.4
2019-02-04T14:26:28.628Z,981.39
2019-02-04T14:27:38.740Z,981.39
2019-02-04T14:28:48.813Z,981.38
2019-02-04T14:29:58.752Z,981.38
2019-02-04T14:31:08.449Z,981.38
2019-02-04T14:32:18.403Z,981.36
2019-02-04T14:33:28.342Z,981.37
2019-02-04T14:34:38.189Z,981.41
2019-02-04T14:35:48.120Z,981.35
2019-02-04T14:36:58.060Z,981.34
2019-02-04T14:38:08.007Z,981.36
2019-02-04T14:39:17.955Z,981.28
2019-02-04T14:40:28.314Z,981.25
2019-02-04T14:41:38.646Z,981.23
2019-02-04T14:42:49.179Z,981.2
2019-02-04T14:44:02.535Z,981.17
2019-02-04T14:45:13.121Z,981.21
2019-02-04T14:46:23.827Z,981.2
2019-02-04T14:47:34.030Z,981.29
2019-02-04T14:48:44.006Z,981.27
2019-02-04T14:49:53.947Z,981.28
2019-02-04T14:51:03.897Z,981.28
2019-02-04T14:52:20.908Z,981.27
2019-02-04T14:53:31.397Z,981.25
2019-02-04T14:54:41.335Z,981.2
2019-02-04T14:55:51.030Z,981.15
2019-02-04T14:57:00.973Z,981.11
2019-02-04T14:58:10.967Z,981.09
2019-02-04T14:59:20.911Z,981.04
2019-02-04T15:00:30.886Z,981.04
2019-02-04T15:01:40.839Z,980.99
2019-02-04T15:02:50.779Z,981.01
2019-02-04T15:04:00.881Z,980.99
2019-02-04T15:05:10.843Z,980.96
2019-02-04T15:06:20.785Z,980.94
2019-02-04T15:07:30.469Z,980.93
2019-02-04T15:08:40.167Z,980.93
2019-02-04T15:09:50.276Z,980.96
2019-02-04T15:11:00.214Z,980.91
2019-02-04T15:12:10.264Z,980.88
2019-02-04T15:13:20.202Z,980.88
2019-02-04T15:14:30.150Z,980.8
2019-02-04T15:15:40.152Z,980.8
2019-02-04T15:16:50.105Z,980.81
2019-02-04T15:18:00.059Z,980.83
2019-02-04T15:19:10.008Z,980.85
2019-02-04T15:20:20.083Z,980.82
2019-02-04T15:21:30.248Z,980.86
2019-02-04T15:22:41.694Z,980.76
2019-02-04T15:23:52.303Z,980.78
2019-02-04T15:25:13.607Z,980.77
2019-02-04T15:26:24.907Z,980.73
2019-02-04T15:27:35.410Z,980.72
2019-02-04T15:28:45.125Z,980.68
2019-02-04T15:29:55.065Z,980.68
2019-02-04T15:31:05.005Z,980.67
2019-02-04T15:32:17.671Z,980.64
2019-02-04T15:33:29.837Z,980.64
2019-02-04T15:34:39.789Z,980.65
2019-02-04T15:35:49.745Z,980.67
2019-02-04T15:36:59.682Z,980.71
2019-02-04T15:38:09.660Z,980.59
2019-02-04T15:39:19.589Z,980.55
2019-02-04T15:40:29.529Z,980.51
2019-02-04T15:41:39.474Z,980.46
2019-02-04T15:42:49.419Z,980.5
2019-02-04T15:43:59.502Z,980.48
2019-02-04T15:45:09.457Z,980.49
2019-02-04T15:46:19.408Z,980.5
2019-02-04T15:47:29.539Z,980.52
2019-02-04T15:48:39.509Z,980.47
2019-02-04T15:49:50.943Z,980.44
2019-02-04T15:51:00.979Z,980.45
2019-02-04T15:52:10.929Z,980.39
2019-02-04T15:53:20.877Z,980.36
2019-02-04T15:54:30.819Z,980.4
2019-02-04T15:55:40.807Z,980.4
2019-02-04T15:56:50.745Z,980.39
2019-02-04T15:58:00.802Z,980.32
2019-02-04T15:59:10.489Z,980.32
2019-02-04T16:00:20.429Z,980.33
2019-02-04T16:01:30.469Z,980.3
2019-02-04T16:02:40.522Z,980.23
2019-02-04T16:03:50.826Z,980.21
2019-02-04T16:05:00.912Z,980.22
2019-02-04T16:06:11.482Z,980.25
2019-02-04T16:07:23.927Z,980.23
2019-02-04T16:08:34.697Z,980.25
2019-02-04T16:09:45.467Z,980.24
2019-02-04T16:10:55.955Z,980.27
2019-02-04T16:12:06.492Z,980.28
2019-02-04T16:13:16.776Z,980.25
2019-02-04T16:14:26.880Z,980.28
2019-02-04T16:15:36.833Z,980.24
2019-02-04T16:16:50.043Z,980.2
2019-02-04T16:17:59.996Z,980.21
2019-02-04T16:19:09.932Z,980.22
2019-02-04T16:20:19.872Z,980.22
2019-02-04T16:21:29.828Z,980.19
2019-02-04T16:22:41.933Z,980.2
2019-02-04T16:24:03.606Z,980.19
2019-02-04T16:25:13.660Z,980.19
2019-02-04T16:26:23.596Z,980.13
2019-02-04T16:27:33.535Z,980.09
2019-02-04T16:28:43.485Z,980.14
2019-02-04T16:29:53.670Z,980.13
2019-02-04T16:31:03.627Z,980.08
2019-02-04T16:32:13.566Z,980.05
2019-02-04T16:33:23.497Z,980.05
2019-02-04T16:34:33.454Z,980.04
2019-02-04T16:35:43.403Z,980.03
2019-02-04T16:36:53.343Z,980
2019-02-04T16:38:03.275Z,979.97
2019-02-04T16:39:13.217Z,979.98
2019-02-04T16:40:23.152Z,979.99
2019-02-04T16:41:33.196Z,979.99
2019-02-04T16:42:43.140Z,979.99
2019-02-04T16:43:52.838Z,980
2019-02-04T16:45:02.787Z,980.01
2019-02-04T16:46:12.730Z,979.97
2019-02-04T16:47:22.754Z,979.98
2019-02-04T16:48:32.699Z,979.93
2019-02-04T16:49:42.651Z,979.95
2019-02-04T16:51:03.518Z,979.87
2019-02-04T16:52:20.612Z,979.86
2019-02-04T16:53:30.641Z,979.89
2019-02-04T16:54:40.572Z,979.87
2019-02-04T16:55:50.501Z,979.83
2019-02-04T16:57:00.450Z,979.81
2019-02-04T16:58:10.496Z,979.8
2019-02-04T16:59:20.441Z,979.75
2019-02-04T17:00:30.416Z,979.73
2019-02-04T17:01:40.558Z,979.72
2019-02-04T17:02:50.504Z,979.67
2019-02-04T17:04:00.551Z,979.67
2019-02-04T17:05:10.486Z,979.68
2019-02-04T17:06:20.433Z,979.64
2019-02-04T17:07:30.533Z,979.6
2019-02-04T17:08:40.478Z,979.67
2019-02-04T17:09:50.464Z,979.64
2019-02-04T17:11:00.524Z,979.64
2019-02-04T17:12:10.467Z,979.55
2019-02-04T17:13:20.417Z,979.53
2019-02-04T17:14:30.467Z,979.55
2019-02-04T17:15:40.464Z,979.5
2019-02-04T17:16:50.409Z,979.5
2019-02-04T17:18:00.347Z,979.46
2019-02-04T17:19:10.284Z,979.43
2019-02-04T17:20:20.215Z,979.4
2019-02-04T17:21:30.271Z,979.35
2019-02-04T17:22:40.216Z,979.42
2019-02-04T17:23:50.150Z,979.45
2019-02-04T17:25:00.101Z,979.42
2019-02-04T17:26:10.285Z,979.49
2019-02-04T17:27:20.327Z,979.47
2019-02-04T17:28:30.275Z,979.47
2019-02-04T17:29:40.214Z,979.47
2019-02-04T17:30:50.161Z,979.46
2019-02-04T17:32:00.546Z,979.45
2019-02-04T17:33:10.690Z,979.41
2019-02-04T17:34:20.624Z,979.38
2019-02-04T17:35:30.588Z,979.36
2019-02-04T17:36:40.530Z,979.4
2019-02-04T17:37:50.478Z,979.38
2019-02-04T17:39:00.519Z,979.37
2019-02-04T17:40:10.457Z,979.38
2019-02-04T17:41:20.405Z,979.33
2019-02-04T17:42:30.358Z,979.33
2019-02-04T17:43:40.296Z,979.38
2019-02-04T17:44:50.270Z,979.3
2019-02-04T17:46:00.212Z,979.32
2019-02-04T17:47:10.150Z,979.29
2019-02-04T17:48:20.417Z,979.29
2019-02-04T17:49:31.039Z,979.3
2019-02-04T17:50:41.525Z,979.28
2019-02-04T17:51:52.330Z,979.32
2019-02-04T17:53:03.173Z,979.27
2019-02-04T17:54:13.670Z,979.28
2019-02-04T17:55:24.267Z,979.22
2019-02-04T17:56:34.815Z,979.23
2019-02-04T17:57:45.122Z,979.22
2019-02-04T17:58:55.586Z,979.16
2019-02-04T18:00:05.536Z,979.21
2019-02-04T18:01:15.485Z,979.16
2019-02-04T18:02:25.548Z,979.15
2019-02-04T18:03:35.516Z,979.19
2019-02-04T18:04:45.495Z,979.16
2019-02-04T18:05:55.493Z,979.14
2019-02-04T18:07:05.479Z,979.14
2019-02-04T18:08:15.511Z,979.12
2019-02-04T18:09:25.461Z,979.15
2019-02-04T18:10:35.427Z,979.05
2019-02-04T18:11:45.377Z,979.09
2019-02-04T18:12:55.368Z,979.1
2019-02-04T18:14:05.373Z,979.12
2019-02-04T18:15:15.429Z,979.06
2019-02-04T18:16:25.391Z,979.05
2019-02-04T18:17:35.342Z,979.03
2019-02-04T18:18:45.285Z,979.01
2019-02-04T18:19:55.330Z,979.03
2019-02-04T18:21:05.517Z,979
2019-02-04T18:22:15.565Z,979.01
2019-02-04T18:23:25.511Z,978.97
2019-02-04T18:24:45.925Z,978.99
2019-02-04T18:25:55.998Z,979.01
2019-02-04T18:27:06.170Z,978.94
2019-02-04T18:28:15.888Z,978.93
2019-02-04T18:29:25.606Z,978.95
2019-02-04T18:30:36.741Z,978.97
2019-02-04T18:31:46.794Z,978.96
2019-02-04T18:32:56.786Z,979
2019-02-04T18:34:08.332Z,978.98
2019-02-04T18:35:18.322Z,978.99
2019-02-04T18:36:28.312Z,978.97
2019-02-04T18:37:39.923Z,978.98
2019-02-04T18:38:49.902Z,978.97
2019-02-04T18:39:59.881Z,978.96
2019-02-04T18:41:10.063Z,978.89
2019-02-04T18:42:20.049Z,978.89
2019-02-04T18:43:30.785Z,978.8
2019-02-04T18:44:40.835Z,978.81
2019-02-04T18:45:50.814Z,978.78
2019-02-04T18:47:01.609Z,978.74
2019-02-04T18:48:14.071Z,978.79
2019-02-04T18:49:24.724Z,978.8
2019-02-04T18:50:34.807Z,978.76
2019-02-04T18:51:44.803Z,978.75
2019-02-04T18:52:55.444Z,978.78
2019-02-04T18:54:05.385Z,978.76
2019-02-04T18:55:15.337Z,978.71
2019-02-04T18:56:25.273Z,978.72
2019-02-04T18:57:35.211Z,978.7
2019-02-04T18:58:45.152Z,978.69
2019-02-04T18:59:55.104Z,978.66
2019-02-04T19:01:04.898Z,978.68
2019-02-04T19:02:14.839Z,978.65
2019-02-04T19:03:24.900Z,978.59
2019-02-04T19:04:34.843Z,978.62
2019-02-04T19:05:44.778Z,978.62
2019-02-04T19:06:54.720Z,978.65
2019-02-04T19:08:04.672Z,978.63
2019-02-04T19:09:14.643Z,978.61
2019-02-04T19:10:27.201Z,978.61
2019-02-04T19:11:37.134Z,978.58
2019-02-04T19:12:47.181Z,978.57
2019-02-04T19:13:57.119Z,978.61
2019-02-04T19:15:07.058Z,978.61
2019-02-04T19:16:17.109Z,978.58
2019-02-04T19:17:27.056Z,978.59
2019-02-04T19:18:36.992Z,978.57
2019-02-04T19:19:46.941Z,978.52
2019-02-04T19:20:56.877Z,978.52
2019-02-04T19:22:06.816Z,978.45
2019-02-04T19:23:16.756Z,978.48
2019-02-04T19:24:29.957Z,978.49
2019-02-04T19:25:40.233Z,978.5
2019-02-04T19:26:50.599Z,978.52
2019-02-04T19:28:02.555Z,978.52
2019-02-04T19:29:13.042Z,978.48
2019-02-04T19:30:23.973Z,978.45
2019-02-04T19:31:34.897Z,978.41
2019-02-04T19:32:45.393Z,978.42
2019-02-04T19:33:55.814Z,978.39
2019-02-04T19:35:06.013Z,978.4
2019-02-04T19:36:18.446Z,978.39
2019-02-04T19:37:28.601Z,978.34
2019-02-04T19:38:38.543Z,978.34
2019-02-04T19:39:48.233Z,978.32
2019-02-04T19:40:58.193Z,978.22
2019-02-04T19:42:08.238Z,978.26
2019-02-04T19:43:20.670Z,978.22
2019-02-04T19:44:30.624Z,978.18
2019-02-04T19:45:40.582Z,978.16
2019-02-04T19:46:50.519Z,978.19
2019-02-04T19:48:03.062Z,978.24
2019-02-04T19:49:13.203Z,978.21
2019-02-04T19:50:23.141Z,978.21
2019-02-04T19:51:33.104Z,978.17
2019-02-04T19:52:43.049Z,978.17
2019-02-04T19:53:53.198Z,978.18
2019-02-04T19:55:03.151Z,978.19
2019-02-04T19:56:16.249Z,978.12
2019-02-04T19:57:26.180Z,978.14
2019-02-04T19:58:36.115Z,978.12
2019-02-04T19:59:46.280Z,978.08
2019-02-04T20:00:56.231Z,978.1
2019-02-04T20:02:06.174Z,978.09
2019-02-04T20:03:16.237Z,978.05
2019-02-04T20:04:26.183Z,978.1
2019-02-04T20:05:36.219Z,978.07
2019-02-04T20:06:46.165Z,978.05
2019-02-04T20:07:56.103Z,978.04
2019-02-04T20:09:06.048Z,977.99
2019-02-04T20:10:15.978Z,977.99
2019-02-04T20:11:26.018Z,978.01
2019-02-04T20:12:35.971Z,978
2019-02-04T20:13:45.907Z,977.93
2019-02-04T20:14:56.292Z,977.87
2019-02-04T20:16:06.462Z,977.87
2019-02-04T20:17:16.418Z,977.93
2019-02-04T20:18:26.366Z,977.85
2019-02-04T20:19:36.322Z,977.83
2019-02-04T20:20:46.379Z,977.81
2019-02-04T20:21:56.321Z,977.88
2019-02-04T20:23:06.325Z,977.78
2019-02-04T20:24:16.610Z,977.83
2019-02-04T20:25:38.020Z,977.84
2019-02-04T20:26:48.172Z,977.84
2019-02-04T20:27:58.306Z,977.9
2019-02-04T20:29:08.256Z,977.87
2019-02-04T20:30:18.262Z,977.86
2019-02-04T20:31:28.214Z,977.83
2019-02-04T20:32:38.156Z,977.82
2019-02-04T20:33:48.221Z,977.85
2019-02-04T20:34:58.194Z,977.83
2019-02-04T20:36:08.179Z,977.77
2019-02-04T20:37:18.151Z,977.79
2019-02-04T20:38:28.127Z,977.8
2019-02-04T20:39:38.141Z,977.81
2019-02-04T20:40:48.096Z,977.79
2019-02-04T20:41:58.050Z,977.75
2019-02-04T20:43:07.991Z,977.78
2019-02-04T20:44:19.262Z,977.79
2019-02-04T20:45:29.496Z,977.8
2019-02-04T20:46:39.456Z,977.79
2019-02-04T20:47:49.402Z,977.78
2019-02-04T20:48:59.347Z,977.79
2019-02-04T20:50:09.289Z,977.71
2019-02-04T20:51:19.279Z,977.69
2019-02-04T20:52:29.336Z,977.73
2019-02-04T20:53:39.273Z,977.68
2019-02-04T20:54:49.301Z,977.7
2019-02-04T20:55:59.248Z,977.67
2019-02-04T20:57:09.175Z,977.68
2019-02-04T20:58:19.116Z,977.66
2019-02-04T20:59:29.053Z,977.66
2019-02-04T21:00:39.003Z,977.65
2019-02-04T21:01:48.954Z,977.61
2019-02-04T21:03:01.791Z,977.6
2019-02-04T21:04:11.937Z,977.58
2019-02-04T21:05:21.892Z,977.56
2019-02-04T21:06:31.838Z,977.52
2019-02-04T21:07:41.847Z,977.54
2019-02-04T21:08:51.834Z,977.58
2019-02-04T21:10:01.777Z,977.57
2019-02-04T21:11:11.711Z,977.59
2019-02-04T21:12:21.651Z,977.62
2019-02-04T21:13:31.593Z,977.64
2019-02-04T21:14:41.629Z,977.63
2019-02-04T21:15:51.584Z,977.6
2019-02-04T21:17:01.531Z,977.6
2019-02-04T21:18:11.460Z,977.59
2019-02-04T21:19:21.172Z,977.58
2019-02-04T21:20:31.117Z,977.56
2019-02-04T21:21:41.058Z,977.55
2019-02-04T21:22:50.995Z,977.57
2019-02-04T21:24:01.050Z,977.58
2019-02-04T21:25:11.349Z,977.53
2019-02-04T21:26:21.736Z,977.54
2019-02-04T21:27:32.286Z,977.51
2019-02-04T21:28:43.245Z,977.49
2019-02-04T21:29:53.709Z,977.52
2019-02-04T21:31:04.455Z,977.56
2019-02-04T21:32:16.692Z,977.51
2019-02-04T21:33:26.916Z,977.51
2019-02-04T21:34:37.007Z,977.51
2019-02-04T21:35:47.095Z,977.51
2019-02-04T21:36:57.062Z,977.52
2019-02-04T21:38:07.023Z,977.5
2019-02-04T21:39:16.963Z,977.49
2019-02-04T21:40:26.897Z,977.48
2019-02-04T21:41:36.838Z,977.49
2019-02-04T21:42:46.780Z,977.48
2019-02-04T21:43:56.813Z,977.5
2019-02-04T21:45:06.743Z,977.47
2019-02-04T21:46:16.681Z,977.48
2019-02-04T21:47:26.628Z,977.47
2019-02-04T21:48:36.567Z,977.43
2019-02-04T21:49:46.683Z,977.47
2019-02-04T21:50:56.618Z,977.43
2019-02-04T21:52:06.552Z,977.45
2019-02-04T21:53:16.491Z,977.44
2019-02-04T21:54:26.489Z,977.46
2019-02-04T21:55:36.526Z,977.42
2019-02-04T21:56:46.473Z,977.42
2019-02-04T21:57:56.408Z,977.44
2019-02-04T21:59:06.351Z,977.44
2019-02-04T22:00:16.301Z,977.42
2019-02-04T22:01:26.350Z,977.42
2019-02-04T22:02:36.282Z,977.44
2019-02-04T22:03:46.223Z,977.4
2019-02-04T22:04:55.923Z,977.42
2019-02-04T22:06:05.878Z,977.43
2019-02-04T22:07:15.930Z,977.45
2019-02-04T22:08:25.889Z,977.43
2019-02-04T22:09:36.600Z,977.44
2019-02-04T22:10:46.576Z,977.44
2019-02-04T22:11:56.540Z,977.42
2019-02-04T22:13:06.644Z,977.39
2019-02-04T22:14:17.764Z,977.38
2019-02-04T22:15:27.734Z,977.39
2019-02-04T22:16:37.703Z,977.41
2019-02-04T22:17:48.579Z,977.4
2019-02-04T22:18:58.549Z,977.43
2019-02-04T22:20:08.525Z,977.41
2019-02-04T22:21:18.508Z,977.41
2019-02-04T22:22:29.089Z,977.43
2019-02-04T22:23:39.158Z,977.43
2019-02-04T22:24:49.238Z,977.48
2019-02-04T22:26:00.307Z,977.41
2019-02-04T22:27:10.284Z,977.42
2019-02-04T22:28:20.253Z,977.42
2019-02-04T22:29:31.624Z,977.39
2019-02-04T22:30:41.683Z,977.46
2019-02-04T22:31:51.642Z,977.45
2019-02-04T22:33:02.962Z,977.45
2019-02-04T22:34:13.040Z,977.38
2019-02-04T22:35:23.674Z,977.38
2019-02-04T22:36:34.614Z,977.38
2019-02-04T22:37:45.440Z,977.36
2019-02-04T22:38:56.064Z,977.35
2019-02-04T22:40:06.796Z,977.34
2019-02-04T22:41:17.493Z,977.33
2019-02-04T22:42:28.114Z,977.32
2019-02-04T22:43:38.549Z,977.36
2019-02-04T22:44:48.625Z,977.35
2019-02-04T22:45:58.802Z,977.33
2019-02-04T22:47:08.727Z,977.35
2019-02-04T22:48:18.769Z,977.33
2019-02-04T22:49:28.705Z,977.32
2019-02-04T22:50:38.637Z,977.3
2019-02-04T22:51:48.648Z,977.33
2019-02-04T22:53:01.458Z,977.32
2019-02-04T22:54:12.211Z,977.32
2019-02-04T22:55:31.322Z,977.31
2019-02-04T22:56:41.852Z,977.31
2019-02-04T22:57:51.798Z,977.27
2019-02-04T22:59:01.546Z,977.33
2019-02-04T23:00:11.543Z,977.25
2019-02-04T23:01:21.477Z,977.28
2019-02-04T23:02:31.438Z,977.27
2019-02-04T23:03:41.391Z,977.28
2019-02-04T23:04:51.339Z,977.29
2019-02-04T23:06:01.376Z,977.27
2019-02-04T23:07:11.302Z,977.26
2019-02-04T23:08:21.237Z,977.32
2019-02-04T23:09:31.172Z,977.3
2019-02-04T23:10:41.116Z,977.28
2019-02-04T23:11:50.906Z,977.28
2019-02-04T23:13:00.846Z,977.23
2019-02-04T23:14:10.786Z,977.24